createdAt,value
2022-09-28T00:00:51.306Z,98.64
2022-09-28T00:06:02.056Z,98.77
2022-09-28T00:11:07.247Z,98.67
2022-09-28T00:16:14.093Z,98.58
2022-09-28T00:21:19.631Z,98.93
2022-09-28T00:26:22.458Z,98.99
2022-09-28T00:31:26.384Z,98.57
2022-09-28T00:36:32.073Z,98.93
2022-09-28T00:41:36.150Z,98.80
2022-09-28T00:46:38.875Z,98.93
2022-09-28T00:51:44.499Z,99.03
2022-09-28T00:56:49.349Z,98.94
2022-09-28T01:01:52.185Z,99.00
2022-09-28T01:06:58.244Z,98.92
2022-09-28T01:12:00.989Z,98.88
2022-09-28T01:17:09.565Z,98.89
2022-09-28T01:22:28.293Z,98.96
2022-09-28T01:27:36.130Z,98.99
2022-09-28T01:32:50.058Z,98.94
2022-09-28T01:37:57.924Z,98.95
2022-09-28T01:43:05.187Z,98.81
2022-09-28T01:48:09.645Z,98.96
2022-09-28T01:53:18.386Z,98.83
2022-09-28T01:58:28.086Z,98.95
2022-09-28T02:03:36.750Z,98.77
2022-09-28T02:08:44.044Z,98.65
2022-09-28T02:13:53.802Z,98.67
2022-09-28T02:18:56.914Z,98.66
2022-09-28T02:24:04.751Z,98.56
2022-09-28T02:29:09.067Z,98.45
2022-09-28T02:34:11.818Z,98.42
2022-09-28T02:39:15.130Z,98.17
2022-09-28T02:44:39.894Z,98.24
2022-09-28T02:49:49.591Z,98.35
2022-09-28T02:55:21.226Z,98.14
2022-09-28T03:00:25.906Z,98.25
2022-09-28T03:05:39.777Z,98.27
2022-09-28T03:10:47.657Z,98.25
2022-09-28T03:15:51.773Z,98.27
2022-09-28T03:20:54.555Z,98.08
2022-09-28T03:25:57.440Z,98.16
2022-09-28T03:31:01.568Z,98.11
2022-09-28T03:36:04.324Z,98.04
2022-09-28T03:41:07.626Z,98.12
2022-09-28T03:46:11.707Z,98.04
2022-09-28T03:51:15.032Z,97.96
2022-09-28T03:56:17.842Z,97.78
2022-09-28T04:01:22.012Z,97.96
2022-09-28T04:06:25.411Z,97.71
2022-09-28T04:11:34.909Z,97.72
2022-09-28T04:16:48.120Z,97.66
2022-09-28T04:21:51.958Z,97.69
2022-09-28T04:27:15.442Z,97.62
2022-09-28T04:32:19.621Z,97.73
2022-09-28T04:37:22.329Z,97.66
2022-09-28T04:42:25.049Z,97.80
2022-09-28T04:47:30.636Z,97.72
2022-09-28T04:52:33.361Z,97.49
2022-09-28T04:57:36.148Z,97.52
2022-09-28T05:02:40.349Z,97.43
2022-09-28T05:07:43.062Z,97.85
2022-09-28T05:12:45.747Z,97.66
2022-09-28T05:17:49.804Z,97.73
2022-09-28T05:22:52.535Z,97.65
2022-09-28T05:27:56.826Z,97.57
2022-09-28T05:33:01.005Z,97.54
2022-09-28T05:38:05.577Z,97.72
2022-09-28T05:43:08.399Z,97.61
2022-09-28T05:48:12.487Z,97.41
2022-09-28T05:53:15.167Z,97.35
2022-09-28T05:58:18.115Z,97.85
2022-09-28T06:03:22.264Z,97.86
2022-09-28T06:08:24.972Z,98.13
2022-09-28T06:13:28.329Z,97.80
2022-09-28T06:18:32.413Z,98.03
2022-09-28T06:23:35.105Z,97.92
2022-09-28T06:28:38.106Z,97.87
2022-09-28T06:33:42.694Z,97.98
2022-09-28T06:38:45.485Z,97.73
2022-09-28T06:43:48.807Z,97.76
2022-09-28T06:48:53.153Z,97.88
2022-09-28T06:53:56.568Z,97.78
2022-09-28T06:58:59.259Z,97.73
2022-09-28T07:04:03.511Z,97.31
2022-09-28T07:09:26.908Z,97.11
2022-09-28T07:14:46.496Z,96.79
2022-09-28T07:19:52.720Z,96.92
2022-09-28T07:24:55.477Z,96.58
2022-09-28T07:29:58.848Z,96.55
2022-09-28T07:35:08.082Z,96.38
2022-09-28T07:40:29.322Z,96.47
2022-09-28T07:45:36.103Z,96.16
2022-09-28T07:50:40.292Z,96.04
2022-09-28T07:55:43.046Z,95.79
2022-09-28T08:00:48.124Z,95.72
2022-09-28T08:05:52.267Z,95.62
2022-09-28T08:16:08.296Z,95.49
2022-09-28T08:21:30.005Z,95.67
2022-09-28T08:26:32.721Z,95.85
2022-09-28T08:31:36.029Z,95.58
2022-09-28T08:36:40.102Z,95.26
2022-09-28T08:41:49.800Z,94.91
2022-09-28T08:46:57.628Z,94.55
2022-09-28T08:52:06.447Z,94.08
2022-09-28T08:57:15.415Z,93.75
2022-09-28T09:02:24.010Z,93.44
2022-09-28T09:07:59.700Z,93.12
2022-09-28T09:13:19.163Z,92.46
2022-09-28T09:18:32.222Z,92.36
2022-09-28T09:23:40.044Z,92.15
2022-09-28T09:28:59.509Z,91.78
2022-09-28T09:34:23.657Z,91.31
2022-09-28T09:39:39.375Z,90.44
2022-09-28T09:45:03.162Z,90.60
2022-09-28T09:50:12.698Z,90.32
2022-09-28T09:55:30.120Z,90.05
2022-09-28T10:00:34.292Z,89.79
2022-09-28T10:05:38.196Z,89.65
2022-09-28T10:10:50.530Z,89.50
2022-09-28T10:15:53.276Z,89.36
2022-09-28T10:20:55.980Z,88.76
2022-09-28T10:26:06.866Z,88.24
2022-09-28T10:31:35.232Z,87.29
2022-09-28T10:36:50.891Z,86.58
2022-09-28T10:41:55.506Z,86.56
2022-09-28T10:47:01.160Z,85.11
2022-09-28T10:52:04.595Z,85.15
2022-09-28T10:57:28.269Z,84.08
2022-09-28T11:02:36.038Z,83.78
2022-09-28T11:07:47.199Z,84.04
2022-09-28T11:12:52.382Z,84.26
2022-09-28T11:17:55.293Z,84.27
2022-09-28T11:22:59.820Z,84.51
2022-09-28T11:28:05.664Z,84.60
2022-09-28T11:33:17.611Z,84.47
2022-09-28T11:38:33.525Z,84.50
2022-09-28T11:43:55.470Z,84.42
2022-09-28T11:49:03.738Z,84.46
2022-09-28T11:54:14.389Z,84.40
2022-09-28T11:59:23.483Z,84.03
2022-09-28T12:04:32.984Z,84.10
2022-09-28T12:09:43.444Z,83.63
2022-09-28T12:14:49.191Z,83.71
2022-09-28T12:19:56.699Z,83.37
2022-09-28T12:25:01.677Z,83.21
2022-09-28T12:30:14.178Z,82.58
2022-09-28T12:35:28.888Z,82.56
2022-09-28T12:40:38.774Z,82.70
2022-09-28T12:46:11.535Z,82.01
2022-09-28T12:51:29.812Z,82.71
2022-09-28T12:56:42.091Z,82.47
2022-09-28T13:02:14.803Z,82.06
2022-09-28T13:07:27.185Z,82.26
2022-09-28T13:12:38.768Z,81.86
2022-09-28T13:17:54.457Z,82.06
2022-09-28T13:23:07.476Z,82.06
2022-09-28T13:28:14.476Z,81.91
2022-09-28T13:33:26.846Z,81.79
2022-09-28T13:38:50.869Z,81.56
2022-09-28T13:44:20.937Z,81.17
2022-09-28T13:49:32.532Z,81.40
2022-09-28T13:54:53.558Z,79.44
2022-09-28T14:00:17.431Z,79.80
2022-09-28T14:05:48.473Z,80.39
2022-09-28T14:10:53.163Z,80.25
2022-09-28T14:16:20.876Z,79.94
2022-09-28T14:22:01.734Z,80.37
2022-09-28T14:27:29.772Z,80.17
2022-09-28T14:32:37.032Z,79.43
2022-09-28T14:38:00.272Z,79.61
2022-09-28T14:43:28.509Z,79.70
2022-09-28T14:48:44.933Z,80.39
2022-09-28T14:53:51.529Z,80.54
2022-09-28T14:58:57.887Z,81.13
2022-09-28T15:04:05.589Z,81.39
2022-09-28T15:09:31.349Z,81.48
2022-09-28T15:14:41.426Z,81.48
2022-09-28T15:19:52.276Z,81.45
2022-09-28T15:25:02.231Z,81.82
2022-09-28T15:30:22.902Z,81.64
2022-09-28T15:35:27.729Z,81.66
2022-09-28T15:40:34.645Z,82.15
2022-09-28T15:45:39.939Z,81.80
2022-09-28T15:50:56.958Z,81.26
2022-09-28T15:56:10.109Z,81.26
2022-09-28T16:01:27.087Z,81.69
2022-09-28T16:06:29.888Z,81.96
2022-09-28T16:11:38.899Z,82.51
2022-09-28T16:16:46.897Z,82.84
2022-09-28T16:21:53.423Z,82.74
2022-09-28T16:26:59.855Z,82.74
2022-09-28T16:32:35.094Z,82.84
2022-09-28T16:37:40.892Z,82.75
2022-09-28T16:42:49.049Z,83.08
2022-09-28T16:47:53.062Z,83.22
2022-09-28T16:53:19.782Z,83.58
2022-09-28T16:58:25.116Z,83.91
2022-09-28T17:03:28.940Z,84.17
2022-09-28T17:08:32.884Z,84.21
2022-09-28T17:13:37.441Z,84.44
2022-09-28T17:18:40.457Z,84.85
2022-09-28T17:23:43.177Z,85.71
2022-09-28T17:28:47.275Z,86.06
2022-09-28T17:33:50.088Z,86.42
2022-09-28T17:38:52.801Z,86.78
2022-09-28T17:43:57.158Z,86.89
2022-09-28T17:49:01.349Z,87.11
2022-09-28T17:54:04.700Z,87.42
2022-09-28T17:59:13.664Z,88.00
2022-09-28T18:04:39.847Z,88.28
2022-09-28T18:09:39.701Z,88.66
2022-09-28T18:14:43.745Z,88.76
2022-09-28T18:19:46.475Z,88.69
2022-09-28T18:24:49.197Z,89.09
2022-09-28T18:29:53.339Z,89.08
2022-09-28T18:34:56.041Z,88.86
2022-09-28T18:39:58.985Z,89.25
2022-09-28T18:45:03.087Z,89.43
2022-09-28T18:50:06.337Z,89.54
2022-09-28T18:55:09.834Z,89.85
2022-09-28T19:00:15.789Z,90.04
2022-09-28T19:05:19.104Z,90.22
2022-09-28T19:10:21.982Z,90.39
2022-09-28T19:15:26.231Z,90.70
2022-09-28T19:20:28.987Z,90.59
2022-09-28T19:25:31.676Z,90.80
2022-09-28T19:30:36.194Z,90.77
2022-09-28T19:35:49.852Z,90.95
2022-09-28T19:40:52.579Z,91.11
2022-09-28T19:45:56.930Z,91.09
2022-09-28T19:51:01.416Z,91.16
2022-09-28T19:56:05.522Z,91.21
2022-09-28T20:01:09.753Z,91.47
2022-09-28T20:06:17.104Z,91.58
2022-09-28T20:11:20.721Z,91.61
2022-09-28T20:16:25.424Z,91.59
2022-09-28T20:21:28.573Z,91.72
2022-09-28T20:26:35.691Z,91.56
2022-09-28T20:31:39.940Z,91.98
2022-09-28T20:36:43.135Z,92.05
2022-09-28T20:41:47.153Z,91.88
2022-09-28T20:46:52.628Z,92.06
2022-09-28T20:51:55.646Z,91.96
2022-09-28T20:56:58.365Z,92.01
2022-09-28T21:02:02.661Z,92.20
2022-09-28T21:07:05.636Z,92.32
2022-09-28T21:12:09.192Z,92.36
2022-09-28T21:17:13.298Z,92.24
2022-09-28T21:22:16.014Z,92.34
2022-09-28T21:27:18.703Z,92.43
2022-09-28T21:32:23.182Z,92.31
2022-09-28T21:37:25.906Z,92.34
2022-09-28T21:42:28.646Z,92.56
2022-09-28T21:47:32.728Z,92.43
2022-09-28T21:52:35.445Z,92.45
2022-09-28T21:57:38.152Z,92.26
2022-09-28T22:02:42.493Z,92.47
2022-09-28T22:07:45.265Z,92.23
2022-09-28T22:12:47.959Z,92.65
2022-09-28T22:17:52.055Z,92.32
2022-09-28T22:22:54.958Z,92.27
2022-09-28T22:27:57.695Z,92.23
2022-09-28T22:33:02.442Z,92.28
2022-09-28T22:38:05.192Z,92.22
2022-09-28T22:43:07.932Z,92.00
2022-09-28T22:48:12.826Z,92.22
2022-09-28T22:53:15.960Z,92.59
2022-09-28T22:58:18.741Z,92.20
2022-09-28T23:03:22.810Z,92.15
2022-09-28T23:08:25.661Z,92.83
2022-09-28T23:13:28.721Z,92.80
2022-09-28T23:18:34.513Z,92.36
2022-09-28T23:23:37.248Z,92.82
2022-09-28T23:28:40.009Z,93.24
2022-09-28T23:33:44.157Z,92.92
2022-09-28T23:38:46.869Z,93.34
2022-09-28T23:43:49.567Z,93.02
2022-09-28T23:48:53.856Z,93.41
2022-09-28T23:53:56.611Z,93.45
2022-09-28T23:58:59.544Z,93.40
